Martin Challenger — WDB2346 — position and weather

sailwx.info

Track history (hours):
 
Tides and Currents Weather Stations Pressure Air Temp Water Temp Dewpoint Dewpoint Depression Visibility Wind Speed Wind Dir Waves Ship Positions

Martin Challenger

Owner: MARTIN OPERATING PARTNERSHIP LP, VIDOR, TX. More information available from US FCC via Universal Licensing System and Coast Guard Vessel Documentation Center.

Last reported at 2016-May-03 10:14 UTC. Time now 2016-May-03 14:25 UTC.
Position N 29°47' W 095°04'.

Length 20 m.

MMSI: 366874920.

Date/timePositionNaut miles runAvg speedWind from/ knotsBaromVisibWave heightAir tempDewpointWater temp
2016-May-03 10:14N 29°47' W 095°04'1 1.4
2016-May-03 09:14N 29°46' W 095°05'1 2.0
2016-May-03 08:33N 29°47' W 095°04'1 0.2
2016-May-03 00:32N 29°46' W 095°05'2 2.1
2016-May-02 23:34N 29°44' W 095°04'1 0.6
2016-May-02 22:33N 29°44' W 095°03'0 0.0
2016-May-02 21:33N 29°44' W 095°03'0 0.0
2016-May-02 20:34N 29°44' W 095°03'0 0.0
2016-May-02 19:34N 29°44' W 095°03'0 0.0
2016-May-02 18:32N 29°44' W 095°03'0 0.0
2016-May-02 17:33N 29°44' W 095°03'0 0.0
2016-May-02 16:33N 29°44' W 095°03'0 0.0
2016-May-02 15:33N 29°44' W 095°03'0 0.0
2016-May-02 14:33N 29°44' W 095°03'0 0.0
2016-May-01 21:19N 29°44' W 095°03'0 0.5
2016-May-01 20:33N 29°44' W 095°03'3 3.1
2016-May-01 19:34N 29°42' W 095°01'5 4.9
2016-May-01 18:33N 29°38' W 094°58'5 5.2
2016-May-01 17:34N 29°33' W 094°55'  
2016-Apr-27 16:31N 29°21' W 094°49'0 0.0
2016-Apr-27 15:06N 29°21' W 094°49'0 0.1
2016-Apr-27 12:08N 29°21' W 094°49'0 0.0
2016-Apr-27 11:31N 29°21' W 094°49'2 0.0
2016-Apr-25 14:30N 29°22' W 094°51'2 0.1
2016-Apr-24 08:10N 29°21' W 094°49'0 0.0
2016-Apr-24 05:33N 29°21' W 094°49'0 0.0
2016-Apr-23 15:29N 29°21' W 094°49'0 0.0
2016-Apr-23 14:33N 29°21' W 094°49'0 0.0
2016-Apr-23 13:33N 29°21' W 094°49'0 0.0
2016-Apr-23 12:33N 29°21' W 094°49'0 0.0
2016-Apr-23 11:33N 29°21' W 094°49'0 0.0
2016-Apr-23 10:33N 29°21' W 094°49'  
Track history (hours):
 
Tides and Currents Weather Stations Pressure Air Temp Water Temp Dewpoint Dewpoint Depression Visibility Wind Speed Wind Dir Waves Ship Positions

Martin Challenger

Owner: MARTIN OPERATING PARTNERSHIP LP, VIDOR, TX. More information available from US FCC via Universal Licensing System and Coast Guard Vessel Documentation Center.

Last reported at 2016-May-03 10:14 UTC. Time now 2016-May-03 14:25 UTC.
Position N 29°47' W 095°04'.

Length 20 m.

MMSI: 366874920.

Date/timePositionNaut miles runAvg speedWind from/ knotsBaromVisibWave heightAir tempDewpointWater temp
2016-May-03 10:14N 29°47' W 095°04'1 1.4
2016-May-03 09:14N 29°46' W 095°05'1 2.0
2016-May-03 08:33N 29°47' W 095°04'1 0.2
2016-May-03 00:32N 29°46' W 095°05'2 2.1
2016-May-02 23:34N 29°44' W 095°04'1 0.6
2016-May-02 22:33N 29°44' W 095°03'0 0.0
2016-May-02 21:33N 29°44' W 095°03'0 0.0
2016-May-02 20:34N 29°44' W 095°03'0 0.0
2016-May-02 19:34N 29°44' W 095°03'0 0.0
2016-May-02 18:32N 29°44' W 095°03'0 0.0
2016-May-02 17:33N 29°44' W 095°03'0 0.0
2016-May-02 16:33N 29°44' W 095°03'0 0.0
2016-May-02 15:33N 29°44' W 095°03'0 0.0
2016-May-02 14:33N 29°44' W 095°03'0 0.0
2016-May-01 21:19N 29°44' W 095°03'0 0.5
2016-May-01 20:33N 29°44' W 095°03'3 3.1
2016-May-01 19:34N 29°42' W 095°01'5 4.9
2016-May-01 18:33N 29°38' W 094°58'5 5.2
2016-May-01 17:34N 29°33' W 094°55'  
2016-Apr-27 16:31N 29°21' W 094°49'0 0.0
2016-Apr-27 15:06N 29°21' W 094°49'0 0.1
2016-Apr-27 12:08N 29°21' W 094°49'0 0.0
2016-Apr-27 11:31N 29°21' W 094°49'2 0.0
2016-Apr-25 14:30N 29°22' W 094°51'2 0.1
2016-Apr-24 08:10N 29°21' W 094°49'0 0.0
2016-Apr-24 05:33N 29°21' W 094°49'0 0.0
2016-Apr-23 15:29N 29°21' W 094°49'0 0.0
2016-Apr-23 14:33N 29°21' W 094°49'0 0.0
2016-Apr-23 13:33N 29°21' W 094°49'0 0.0
2016-Apr-23 12:33N 29°21' W 094°49'0 0.0
2016-Apr-23 11:33N 29°21' W 094°49'0 0.0
2016-Apr-23 10:33N 29°21' W 094°49'  

Dump ship's entire track history